Terminal Aerodrome Forecast
Issued by NWS La Crosse, WI

Home | Current Version | Previous Version | Text Only | Print | Product List | Glossary On
Versions: 1 2 3 4 5 6 7 8 9 10 11 12 13 14 15 16 17 18 19 20 21 22 23 24 25 26 27 28 29 30 31 32 33 34 35 36 37 38 39 40 41 42
000
FTUS43 KARX 030525
TAFRST
TAF
KRST 030525Z 0306/0406 16012KT P6SM OVC060
     FM031030 16015KT 2SM -SN OVC010
      TEMPO 0311/0314 1SM -SN OVC006
     FM031600 23013KT 3SM -SN OVC010
     FM032100 30017G23KT 4SM BLSN OVC010
     FM040200 30017KT P6SM OVC015=

USA.gov is the U.S. government's official web portal to all federal, state and local government web resources and services.